Time;durP1;ratioP1;P1;durP2;ratioP2;P2;SDS_P1;SDS_P2;PMS_P1;PMS_P2;Temp;Humidity;BMP_temperature;BMP_pressure;BME280_temperature;BME280_humidity;BME280_pressure;Samples;Min_cycle;Max_cycle;Signal;HPM_P1;HPM_P2
2021/11/09 00:00:25;;;;;;;5.38;3.95;;;9.90;98.40;;;;;;5026025;28;20017;-78
2021/11/09 00:02:52;;;;;;;9.95;4.65;;;9.90;98.30;;;;;;5023048;28;20030;-77
2021/11/09 00:05:20;;;;;;;13.98;4.32;;;9.80;98.30;;;;;;5023488;28;20112;-78
2021/11/09 00:07:57;;;;;;;12.20;4.07;;;9.80;98.30;;;;;;5031177;28;20431;-78
2021/11/09 00:10:24;;;;;;;10.85;4.90;;;9.80;98.40;;;;;;5023766;28;20032;-77
2021/11/09 00:12:53;;;;;;;9.40;3.88;;;9.80;98.40;;;;;;5031280;28;20029;-77
2021/11/09 00:15:21;;;;;;;8.38;4.28;;;9.80;98.50;;;;;;5026392;28;20115;-78
2021/11/09 00:17:50;;;;;;;7.93;4.28;;;9.80;98.60;;;;;;5030979;28;20062;-78
2021/11/09 00:20:18;;;;;;;11.52;4.30;;;9.80;99.00;;;;;;5021122;28;20036;-77
2021/11/09 00:22:44;;;;;;;9.18;3.97;;;9.70;99.30;;;;;;5027707;28;20025;-77
2021/11/09 00:25:11;;;;;;;9.90;4.43;;;9.70;99.90;;;;;;5030034;28;20437;-77
2021/11/09 00:27:37;;;;;;;8.23;3.80;;;9.60;99.90;;;;;;5029456;28;20056;-77
2021/11/09 00:30:04;;;;;;;8.57;4.10;;;9.70;99.90;;;;;;5035664;28;20033;-77
2021/11/09 00:32:30;;;;;;;9.02;4.32;;;9.70;99.90;;;;;;5028590;28;20099;-77
2021/11/09 00:34:55;;;;;;;13.15;5.60;;;9.60;99.90;;;;;;5027847;28;20421;-77
2021/11/09 00:37:21;;;;;;;6.50;4.20;;;9.70;99.90;;;;;;5020385;28;20467;-77
2021/11/09 00:39:47;;;;;;;14.02;5.40;;;9.70;99.90;;;;;;5024688;28;20038;-77
2021/11/09 00:42:14;;;;;;;13.98;5.82;;;9.70;99.90;;;;;;5015473;28;20152;-77
2021/11/09 00:44:41;;;;;;;13.10;5.60;;;9.60;99.90;;;;;;5024421;28;20033;-77
2021/11/09 00:47:07;;;;;;;13.77;5.68;;;9.60;99.90;;;;;;5026895;28;20041;-77
2021/11/09 00:49:34;;;;;;;9.30;4.97;;;9.50;99.90;;;;;;5041601;28;20509;-77
2021/11/09 00:51:59;;;;;;;8.88;6.35;;;9.50;99.90;;;;;;5031066;28;20433;-77
2021/11/09 00:54:25;;;;;;;12.07;6.32;;;9.50;99.90;;;;;;5029234;28;20041;-77
2021/11/09 00:56:51;;;;;;;13.30;5.13;;;9.50;99.90;;;;;;5027602;28;20021;-77
2021/11/09 00:59:16;;;;;;;10.68;4.88;;;9.50;99.90;;;;;;5029592;28;20025;-77
2021/11/09 01:01:42;;;;;;;12.95;5.80;;;9.50;99.90;;;;;;5021654;28;20036;-77
2021/11/09 01:04:08;;;;;;;14.15;5.53;;;9.50;99.90;;;;;;5015917;28;20037;-79
2021/11/09 01:06:34;;;;;;;7.43;4.53;;;9.50;99.90;;;;;;5023209;28;20033;-77
2021/11/09 01:09:00;;;;;;;13.35;4.43;;;9.60;99.90;;;;;;5028965;28;20030;-79
2021/11/09 01:11:26;;;;;;;6.60;4.20;;;9.60;99.90;;;;;;5035269;28;20037;-79
2021/11/09 01:13:52;;;;;;;8.88;4.53;;;9.50;99.90;;;;;;5021827;28;20085;-77
2021/11/09 01:16:18;;;;;;;8.52;4.72;;;9.60;99.90;;;;;;5023016;28;20029;-77
2021/11/09 01:18:50;;;;;;;10.73;4.25;;;9.60;99.90;;;;;;5028282;28;20057;-77
2021/11/09 01:21:18;;;;;;;5.57;3.30;;;9.60;99.90;;;;;;5021444;28;20028;-77
2021/11/09 01:23:45;;;;;;;11.45;4.05;;;9.60;99.90;;;;;;5028372;28;20391;-78
2021/11/09 01:26:11;;;;;;;11.02;3.85;;;9.60;99.90;;;;;;5027212;28;20552;-77
2021/11/09 01:28:39;;;;;;;11.73;4.55;;;9.60;99.90;;;;;;5028183;28;20068;-77
2021/11/09 01:31:06;;;;;;;11.20;4.70;;;9.60;99.90;;;;;;5029363;28;20096;-78
2021/11/09 01:33:32;;;;;;;12.23;4.35;;;9.60;99.90;;;;;;5048815;28;20041;-77
2021/11/09 01:35:58;;;;;;;11.88;4.78;;;9.60;99.90;;;;;;5029134;28;20119;-77
2021/11/09 01:38:24;;;;;;;7.45;4.38;;;9.70;99.90;;;;;;5029195;28;20494;-78
2021/11/09 01:40:50;;;;;;;9.48;4.65;;;9.70;99.80;;;;;;5022465;28;20050;-78
2021/11/09 01:43:16;;;;;;;10.98;4.30;;;9.70;99.70;;;;;;5020757;28;20033;-77
2021/11/09 01:45:44;;;;;;;15.98;4.40;;;9.70;99.60;;;;;;5026224;28;20029;-78
2021/11/09 01:48:10;;;;;;;11.65;4.47;;;9.70;99.50;;;;;;5018584;28;20025;-78
2021/11/09 01:50:39;;;;;;;8.23;3.97;;;9.70;99.30;;;;;;5024050;28;20056;-77
2021/11/09 01:53:06;;;;;;;8.75;4.30;;;9.70;99.40;;;;;;5009781;28;20038;-77
2021/11/09 01:55:32;;;;;;;6.65;3.75;;;9.70;99.40;;;;;;5013069;28;20018;-77
2021/11/09 01:57:59;;;;;;;9.75;4.30;;;9.70;99.40;;;;;;5026935;28;20029;-77
2021/11/09 02:00:32;;;;;;;11.20;4.60;;;9.70;99.40;;;;;;5028624;28;20112;-78
2021/11/09 02:02:59;;;;;;;7.05;3.88;;;9.70;99.40;;;;;;5023164;28;20112;-77
2021/11/09 02:05:27;;;;;;;8.38;3.72;;;9.70;99.50;;;;;;5023301;28;20040;-78
2021/11/09 02:07:54;;;;;;;10.98;4.90;;;9.70;99.50;;;;;;5030823;28;20026;-78
2021/11/09 02:10:27;;;;;;;9.23;4.93;;;9.70;99.50;;;;;;5021031;28;20032;-78
2021/11/09 02:12:53;;;;;;;7.88;4.13;;;9.70;99.70;;;;;;5019020;28;20037;-77
2021/11/09 02:15:19;;;;;;;8.32;4.70;;;9.70;99.90;;;;;;5040077;28;20037;-78
2021/11/09 02:17:46;;;;;;;9.50;4.30;;;9.70;99.80;;;;;;5023535;28;20075;-78
2021/11/09 02:20:15;;;;;;;8.43;4.38;;;9.70;99.80;;;;;;5010428;28;20071;-77
2021/11/09 02:22:41;;;;;;;6.88;3.50;;;9.70;99.90;;;;;;5035119;28;20501;-78
2021/11/09 02:25:09;;;;;;;13.95;4.43;;;9.70;99.80;;;;;;5024753;28;20037;-78
2021/11/09 02:27:35;;;;;;;11.48;4.78;;;9.70;99.80;;;;;;5015059;28;20037;-78
2021/11/09 02:30:00;;;;;;;7.18;3.72;;;9.60;99.70;;;;;;5016532;28;20398;-78
2021/11/09 02:32:26;;;;;;;6.50;3.90;;;9.70;99.70;;;;;;5017139;28;20030;-78
2021/11/09 02:34:52;;;;;;;6.72;3.95;;;9.70;99.60;;;;;;5020376;28;20427;-78
2021/11/09 02:37:19;;;;;;;12.32;4.07;;;9.70;99.60;;;;;;5027454;28;20029;-78
2021/11/09 02:39:45;;;;;;;7.80;4.25;;;9.60;99.60;;;;;;5019680;28;20474;-78
2021/11/09 02:42:13;;;;;;;8.55;4.10;;;9.60;99.60;;;;;;5011681;28;20041;-78
2021/11/09 02:45:00;;;;;;;13.38;4.20;;;9.60;99.60;;;;;;5025761;28;20041;-78
2021/11/09 02:47:29;;;;;;;7.78;3.95;;;9.70;99.60;;;;;;5029719;28;20063;-78
2021/11/09 02:50:06;;;;;;;11.82;4.47;;;9.70;99.50;;;;;;5025923;28;20117;-79
2021/11/09 02:52:33;;;;;;;8.15;4.13;;;9.70;99.50;;;;;;5029448;28;20026;-79
2021/11/09 02:55:09;;;;;;;10.63;4.15;;;9.70;99.50;;;;;;5028254;28;20552;-78
2021/11/09 02:57:43;;;;;;;10.65;4.55;;;9.70;99.50;;;;;;5023501;28;20029;-79
2021/11/09 03:00:35;;;;;;;8.23;4.57;;;9.70;99.50;;;;;;5026690;28;20530;-77
2021/11/09 03:03:06;;;;;;;4.70;2.63;;;9.70;99.80;;;;;;5024789;28;20470;-77
2021/11/09 03:05:49;;;;;;;9.93;4.55;;;9.70;99.50;;;;;;5032371;28;20091;-78
2021/11/09 03:08:26;;;;;;;9.07;4.43;;;9.70;99.50;;;;;;5029442;28;20025;-77
2021/11/09 03:10:53;;;;;;;9.00;4.38;;;9.70;99.50;;;;;;5030499;28;20029;-77
2021/11/09 03:13:19;;;;;;;8.13;3.95;;;9.70;99.50;;;;;;5030623;28;20100;-77
2021/11/09 03:15:44;;;;;;;8.18;3.63;;;9.70;99.50;;;;;;5025408;28;20475;-79
2021/11/09 03:18:15;;;;;;;9.88;4.38;;;9.70;99.60;;;;;;5031420;28;20132;-77
2021/11/09 03:20:55;;;;;;;7.70;3.97;;;9.70;99.60;;;;;;5033051;28;20034;-77
2021/11/09 03:40:05;;;;;;;14.75;4.57;;;9.50;99.50;;;;;;5027038;28;20087;-77
2021/11/09 03:45:22;;;;;;;7.20;4.30;;;9.50;99.70;;;;;;5023369;28;20406;-77
2021/11/09 03:47:52;;;;;;;7.93;4.50;;;9.60;99.70;;;;;;5019173;28;20041;-77
2021/11/09 03:50:19;;;;;;;12.40;4.28;;;9.60;99.60;;;;;;5012325;28;20296;-78
2021/11/09 03:52:54;;;;;;;8.57;4.15;;;9.60;99.70;;;;;;5025284;28;20030;-79
2021/11/09 03:58:07;;;;;;;8.95;4.32;;;9.60;99.70;;;;;;5017670;28;20040;-78
2021/11/09 04:06:09;;;;;;;7.70;3.40;;;9.60;99.90;;;;;;5029949;28;20037;-78
2021/11/09 04:08:48;;;;;;;9.48;4.43;;;9.60;99.90;;;;;;5026816;28;20021;-77
2021/11/09 04:11:30;;;;;;;12.32;4.55;;;9.50;99.90;;;;;;5014789;28;20471;-77
2021/11/09 04:14:09;;;;;;;10.95;4.05;;;9.50;99.90;;;;;;5029520;28;20033;-77
2021/11/09 04:16:48;;;;;;;10.43;4.30;;;9.50;99.90;;;;;;5017225;28;20116;-77
2021/11/09 04:22:57;;;;;;;9.38;4.25;;;9.50;99.90;;;;;;5026318;28;20037;-77
2021/11/09 04:39:07;;;;;;;14.57;4.20;;;9.40;99.90;;;;;;5040323;28;20106;-77
2021/11/09 04:47:49;;;;;;;9.15;4.65;;;9.40;99.90;;;;;;5017290;28;20088;-77
2021/11/09 04:52:29;;;;;;;11.68;4.82;;;9.40;99.90;;;;;;5012725;28;20123;-77
2021/11/09 05:08:50;;;;;;;12.82;4.63;;;9.40;99.90;;;;;;5035454;28;20086;-77
2021/11/09 05:11:16;;;;;;;8.20;4.53;;;9.40;99.90;;;;;;5022514;28;20099;-79
2021/11/09 05:13:41;;;;;;;12.65;6.40;;;9.40;99.90;;;;;;5016835;28;20466;-79
2021/11/09 05:16:07;;;;;;;16.38;4.22;;;9.40;99.90;;;;;;5028990;28;20029;-79
2021/11/09 05:18:33;;;;;;;10.27;4.85;;;9.40;99.90;;;;;;5038401;28;20493;-79
2021/11/09 05:20:59;;;;;;;10.45;4.57;;;9.40;99.90;;;;;;5033671;28;20037;-79
2021/11/09 05:23:24;;;;;;;10.15;4.82;;;9.40;99.90;;;;;;5043626;28;20052;-79
2021/11/09 05:25:50;;;;;;;8.18;4.13;;;9.40;99.90;;;;;;5013629;28;20100;-79
2021/11/09 05:28:17;;;;;;;7.90;4.47;;;9.40;99.90;;;;;;5010517;28;20033;-79
2021/11/09 05:30:47;;;;;;;9.18;4.53;;;9.40;99.90;;;;;;5015391;28;20028;-79
2021/11/09 05:33:12;;;;;;;9.88;4.68;;;9.40;99.90;;;;;;5019437;28;20039;-79
2021/11/09 05:35:38;;;;;;;10.85;5.10;;;9.40;99.90;;;;;;5036809;28;20452;-77
2021/11/09 05:38:05;;;;;;;8.50;4.95;;;9.40;99.90;;;;;;5027167;28;20075;-77
2021/11/09 05:40:35;;;;;;;15.43;5.95;;;9.40;99.90;;;;;;5027790;28;20034;-77
2021/11/09 05:43:02;;;;;;;9.02;4.53;;;9.40;99.90;;;;;;5015365;28;20021;-79
2021/11/09 05:45:28;;;;;;;13.27;5.07;;;9.40;99.90;;;;;;5026877;28;20095;-79
2021/11/09 05:47:55;;;;;;;9.80;5.10;;;9.40;99.90;;;;;;5028396;28;20026;-78
2021/11/09 05:50:21;;;;;;;14.45;5.03;;;9.40;99.90;;;;;;5018061;28;20470;-79
2021/11/09 05:52:47;;;;;;;11.18;4.90;;;9.50;99.90;;;;;;5026039;28;20040;-80
2021/11/09 05:55:13;;;;;;;12.93;6.25;;;9.50;99.90;;;;;;5008188;28;20029;-78
2021/11/09 05:57:38;;;;;;;11.75;5.78;;;9.50;99.90;;;;;;5021860;28;20845;-79
2021/11/09 06:00:05;;;;;;;13.30;4.72;;;9.50;99.90;;;;;;5026195;28;20517;-79
2021/11/09 06:02:30;;;;;;;7.43;4.78;;;9.50;99.90;;;;;;5009511;28;20037;-79
2021/11/09 06:04:56;;;;;;;14.30;4.85;;;9.50;99.90;;;;;;5024199;28;20084;-79
2021/11/09 06:07:22;;;;;;;14.18;5.10;;;9.50;99.90;;;;;;5024477;28;20036;-79
2021/11/09 06:09:47;;;;;;;11.15;5.45;;;9.50;99.90;;;;;;5024319;28;20417;-79
2021/11/09 06:12:13;;;;;;;9.20;4.82;;;9.50;99.90;;;;;;5033317;28;20108;-79
2021/11/09 06:14:38;;;;;;;10.57;5.63;;;9.50;99.90;;;;;;5031130;28;20142;-79
2021/11/09 06:17:04;;;;;;;12.68;4.93;;;9.50;99.90;;;;;;5027556;28;20029;-79
2021/11/09 06:19:29;;;;;;;9.77;5.20;;;9.50;99.90;;;;;;5028175;28;20030;-78
2021/11/09 06:21:55;;;;;;;13.75;5.05;;;9.50;99.80;;;;;;5027328;28;20025;-79
2021/11/09 06:24:22;;;;;;;13.90;6.82;;;9.50;99.80;;;;;;5030111;28;20045;-79
2021/11/09 06:26:49;;;;;;;13.05;5.93;;;9.60;99.80;;;;;;5035974;28;22153;-78
2021/11/09 06:29:14;;;;;;;12.25;6.63;;;9.60;99.80;;;;;;5021022;28;20053;-79
2021/11/09 06:31:41;;;;;;;17.88;6.47;;;9.50;99.80;;;;;;5017966;28;20459;-79
2021/11/09 06:34:06;;;;;;;12.45;5.93;;;9.60;99.90;;;;;;5024924;28;20033;-78
2021/11/09 06:36:33;;;;;;;15.77;6.00;;;9.60;99.90;;;;;;5033079;28;20025;-79
2021/11/09 06:38:58;;;;;;;14.60;5.68;;;9.60;99.80;;;;;;5014260;28;20035;-78
2021/11/09 06:41:24;;;;;;;11.85;6.07;;;9.60;99.80;;;;;;5017926;28;20028;-79
2021/11/09 06:43:50;;;;;;;10.07;5.07;;;9.60;99.90;;;;;;5026723;28;20071;-79
2021/11/09 06:46:16;;;;;;;16.13;5.65;;;9.60;99.90;;;;;;5023875;28;20448;-78
2021/11/09 06:48:44;;;;;;;10.40;5.72;;;9.60;99.90;;;;;;5009975;28;20034;-79
2021/11/09 06:51:09;;;;;;;11.30;5.70;;;9.60;99.90;;;;;;5019227;28;20067;-78
2021/11/09 06:53:35;;;;;;;10.00;5.13;;;9.60;99.90;;;;;;5018839;28;20061;-78
2021/11/09 06:56:01;;;;;;;12.00;5.63;;;9.60;99.90;;;;;;5027353;28;20144;-79
2021/11/09 06:58:26;;;;;;;14.60;5.20;;;9.70;99.90;;;;;;5025986;28;20033;-78
2021/11/09 07:00:52;;;;;;;12.32;5.68;;;9.70;99.90;;;;;;5022098;28;20026;-79
2021/11/09 07:03:17;;;;;;;10.38;5.22;;;9.70;99.80;;;;;;5013161;28;20056;-79
2021/11/09 07:05:43;;;;;;;16.63;5.63;;;9.70;99.80;;;;;;5021927;28;20097;-79
2021/11/09 07:08:08;;;;;;;9.18;5.30;;;9.70;99.80;;;;;;5025536;28;20040;-78
2021/11/09 07:10:34;;;;;;;11.25;6.05;;;9.70;99.80;;;;;;5025949;28;20021;-78
2021/11/09 07:13:00;;;;;;;10.52;5.97;;;9.80;99.90;;;;;;5025452;28;20441;-78
2021/11/09 07:15:25;;;;;;;11.10;6.10;;;9.80;99.80;;;;;;5025519;28;20023;-78
2021/11/09 07:17:51;;;;;;;13.10;5.75;;;9.80;99.80;;;;;;5035744;28;20033;-78
2021/11/09 07:20:19;;;;;;;10.02;5.22;;;9.80;99.90;;;;;;5027769;28;20029;-78
2021/11/09 07:22:45;;;;;;;11.25;4.57;;;9.80;99.60;;;;;;5027949;28;20045;-78
2021/11/09 07:25:12;;;;;;;13.80;5.30;;;9.90;99.60;;;;;;5038244;28;20661;-78
2021/11/09 07:27:39;;;;;;;10.75;4.90;;;9.90;99.40;;;;;;5035664;28;20061;-78
2021/11/09 07:30:07;;;;;;;7.80;4.85;;;9.90;99.30;;;;;;5034945;28;20033;-78
2021/11/09 07:32:34;;;;;;;16.70;5.57;;;9.90;99.30;;;;;;5032764;28;20033;-78
2021/11/09 07:34:59;;;;;;;11.63;6.22;;;10.00;99.30;;;;;;5029815;28;20073;-78
2021/11/09 07:37:26;;;;;;;10.90;3.72;;;10.00;99.20;;;;;;5025459;28;20111;-79
2021/11/09 07:39:51;;;;;;;11.55;5.03;;;10.00;99.10;;;;;;5028266;28;20167;-78
2021/11/09 07:42:17;;;;;;;13.13;5.10;;;10.10;99.20;;;;;;5020849;28;20832;-78
2021/11/09 07:44:44;;;;;;;9.32;4.65;;;10.10;99.10;;;;;;5029006;28;20108;-78
2021/11/09 07:47:10;;;;;;;11.20;5.22;;;10.20;99.00;;;;;;5036261;28;20171;-78
2021/11/09 07:49:37;;;;;;;12.82;5.70;;;10.20;99.00;;;;;;5030197;28;20108;-78
2021/11/09 07:52:03;;;;;;;10.95;5.28;;;10.30;98.90;;;;;;5012139;28;20072;-78
2021/11/09 07:54:33;;;;;;;9.32;5.15;;;10.30;98.80;;;;;;5010102;28;20037;-78
2021/11/09 07:57:02;;;;;;;12.07;5.10;;;10.40;98.70;;;;;;5016693;28;20371;-78
2021/11/09 08:02:08;;;;;;;7.63;4.38;;;10.40;98.70;;;;;;5022937;28;20033;-78
2021/11/09 08:07:07;;;;;;;10.20;5.00;;;10.50;98.50;;;;;;5009764;28;20043;-79
2021/11/09 08:09:33;;;;;;;16.05;5.38;;;10.50;98.50;;;;;;5008119;28;20021;-78
2021/11/09 08:12:02;;;;;;;7.93;4.80;;;10.50;98.00;;;;;;5022946;28;20090;-78
2021/11/09 08:14:28;;;;;;;14.30;4.88;;;10.50;98.10;;;;;;5022938;28;20383;-78
2021/11/09 08:16:54;;;;;;;10.10;5.40;;;10.60;98.20;;;;;;5030159;28;20033;-78
2021/11/09 08:19:20;;;;;;;14.25;5.10;;;10.70;98.20;;;;;;5035672;28;20128;-78
2021/11/09 08:21:47;;;;;;;10.75;4.63;;;10.70;98.10;;;;;;5033950;28;20092;-78
2021/11/09 08:24:17;;;;;;;11.75;5.07;;;10.80;98.00;;;;;;5028149;28;20576;-78
2021/11/09 08:26:43;;;;;;;11.85;4.55;;;10.90;98.10;;;;;;5014814;28;20034;-79
2021/11/09 08:29:08;;;;;;;8.52;4.60;;;10.90;97.80;;;;;;5007063;28;20026;-78
2021/11/09 08:31:36;;;;;;;13.15;4.63;;;11.00;97.70;;;;;;5023462;28;20151;-80
2021/11/09 08:34:04;;;;;;;9.75;4.57;;;11.00;97.30;;;;;;5029619;28;20030;-79
2021/11/09 08:36:30;;;;;;;10.85;4.65;;;11.00;97.40;;;;;;5036457;28;20033;-79
2021/11/09 08:39:03;;;;;;;7.93;4.50;;;11.00;97.50;;;;;;5027690;28;20033;-79
2021/11/09 08:41:37;;;;;;;13.68;5.07;;;11.10;97.20;;;;;;5020629;28;20025;-80
2021/11/09 08:44:17;;;;;;;6.70;3.85;;;11.10;97.20;;;;;;5032470;28;20073;-79
2021/11/09 08:46:47;;;;;;;10.43;4.43;;;11.20;97.30;;;;;;5032209;28;20683;-79
2021/11/09 08:49:15;;;;;;;10.38;4.43;;;11.20;97.00;;;;;;5020593;28;20048;-80
2021/11/09 08:51:40;;;;;;;10.48;4.50;;;11.30;96.90;;;;;;5023991;28;20434;-79
2021/11/09 08:54:16;;;;;;;12.05;5.03;;;11.30;96.80;;;;;;5029670;28;20029;-80
2021/11/09 08:56:56;;;;;;;13.68;4.70;;;11.30;96.90;;;;;;5023766;28;20026;-79
2021/11/09 09:04:54;;;;;;;9.60;4.22;;;11.30;96.70;;;;;;5031281;28;20056;-80
2021/11/09 09:07:21;;;;;;;15.52;5.10;;;11.30;96.70;;;;;;5028340;28;20034;-79
2021/11/09 09:09:47;;;;;;;10.98;4.55;;;11.30;96.90;;;;;;5025083;28;20029;-79
2021/11/09 09:12:12;;;;;;;11.15;5.28;;;11.30;96.70;;;;;;5038304;28;20091;-80
2021/11/09 09:14:38;;;;;;;16.63;4.97;;;11.30;96.70;;;;;;5030437;28;20037;-79
2021/11/09 09:17:04;;;;;;;9.90;4.68;;;11.30;96.80;;;;;;5017435;28;20033;-80
2021/11/09 09:19:36;;;;;;;10.82;4.88;;;11.40;96.90;;;;;;5026909;28;20028;-79
2021/11/09 09:22:14;;;;;;;12.50;4.75;;;11.40;96.70;;;;;;5037140;28;20032;-80
2021/11/09 09:29:46;;;;;;;13.73;5.18;;;11.50;96.30;;;;;;5028268;28;20884;-79
2021/11/09 09:32:38;;;;;;;11.60;5.25;;;11.50;96.30;;;;;;5017782;28;20375;-79
2021/11/09 09:57:02;;;;;;;8.77;4.85;;;11.80;96.10;;;;;;5037700;28;20036;-80
2021/11/09 09:59:31;;;;;;;10.40;5.68;;;11.90;95.90;;;;;;5034182;28;20013;-80
2021/11/09 10:02:22;;;;;;;10.52;5.60;;;11.90;95.90;;;;;;5036449;28;20032;-79
2021/11/09 10:05:10;;;;;;;17.13;7.00;;;11.90;95.90;;;;;;5029318;28;20064;-80
2021/11/09 10:07:39;;;;;;;9.65;5.72;;;11.90;95.80;;;;;;5030883;28;20030;-80
2021/11/09 10:10:11;;;;;;;9.88;5.13;;;12.00;95.70;;;;;;5033352;28;20116;-80
2021/11/09 10:12:40;;;;;;;8.68;5.45;;;12.00;95.80;;;;;;5035100;28;20032;-80
2021/11/09 10:15:07;;;;;;;13.10;5.50;;;12.10;95.50;;;;;;5034091;28;20033;-81
2021/11/09 10:17:35;;;;;;;10.55;5.20;;;12.10;95.20;;;;;;5035759;28;20402;-81
2021/11/09 10:20:13;;;;;;;10.95;5.15;;;12.10;94.70;;;;;;5033814;28;20631;-81
2021/11/09 10:22:40;;;;;;;12.85;5.13;;;12.10;94.80;;;;;;5026522;28;20083;-81
2021/11/09 10:25:07;;;;;;;12.95;6.13;;;12.20;94.80;;;;;;5036520;28;20028;-80
2021/11/09 10:27:36;;;;;;;12.60;5.82;;;12.30;94.90;;;;;;5041596;28;20037;-81
2021/11/09 10:30:21;;;;;;;9.57;4.82;;;12.30;95.00;;;;;;5031003;28;20473;-81
2021/11/09 10:32:47;;;;;;;11.88;5.15;;;12.30;94.60;;;;;;5038560;28;20033;-81
2021/11/09 10:35:15;;;;;;;12.60;4.85;;;12.30;94.70;;;;;;5034882;28;20029;-81
2021/11/09 10:37:49;;;;;;;12.85;5.20;;;12.40;94.50;;;;;;5038376;28;20082;-81
2021/11/09 10:40:35;;;;;;;11.60;5.10;;;12.40;94.50;;;;;;5036112;28;20056;-81
2021/11/09 10:43:05;;;;;;;9.73;4.55;;;12.40;94.20;;;;;;5034789;28;20036;-81
2021/11/09 10:45:34;;;;;;;11.75;4.28;;;12.50;94.10;;;;;;5033777;28;20037;-80
2021/11/09 10:48:04;;;;;;;14.00;4.68;;;12.50;93.70;;;;;;5022224;28;20802;-81
2021/11/09 10:50:34;;;;;;;10.02;4.88;;;12.50;93.80;;;;;;5029692;28;20039;-80
2021/11/09 10:53:18;;;;;;;10.43;5.82;;;12.50;94.10;;;;;;5028463;28;20618;-82
2021/11/09 10:56:20;;;;;;;14.45;5.80;;;12.50;94.40;;;;;;5032087;28;20446;-81
2021/11/09 10:59:04;;;;;;;15.75;6.03;;;12.50;94.40;;;;;;5026586;28;20025;-82
2021/11/09 11:04:13;;;;;;;14.50;6.25;;;12.60;94.70;;;;;;5038296;28;20033;-81
2021/11/09 11:06:42;;;;;;;11.35;5.68;;;12.60;95.00;;;;;;5026981;28;20036;-81
2021/11/09 11:09:08;;;;;;;11.18;5.97;;;12.60;95.10;;;;;;5026312;28;20025;-81
2021/11/09 11:11:44;;;;;;;16.88;7.28;;;12.60;94.80;;;;;;5039242;28;20017;-80
2021/11/09 11:14:16;;;;;;;10.35;5.10;;;12.60;95.00;;;;;;5042010;28;20037;-80
2021/11/09 11:16:51;;;;;;;11.60;5.20;;;12.70;94.90;;;;;;5046808;28;20102;-80
2021/11/09 11:19:28;;;;;;;11.55;4.43;;;12.70;94.50;;;;;;5032078;28;20037;-80
2021/11/09 11:21:56;;;;;;;9.05;4.65;;;12.70;94.40;;;;;;5041745;28;20067;-81
2021/11/09 11:24:21;;;;;;;14.25;5.65;;;12.80;94.50;;;;;;5038686;28;20037;-81
2021/11/09 11:26:49;;;;;;;12.52;5.30;;;12.70;94.40;;;;;;5039322;28;20298;-80
2021/11/09 11:29:17;;;;;;;14.05;5.80;;;12.80;94.50;;;;;;5034947;28;20041;-81
2021/11/09 11:31:44;;;;;;;12.18;5.68;;;12.80;94.90;;;;;;5040317;28;20025;-81
2021/11/09 11:34:10;;;;;;;9.32;5.32;;;12.80;94.70;;;;;;5026451;28;20441;-81
2021/11/09 11:36:35;;;;;;;13.27;5.03;;;12.80;94.20;;;;;;5044670;28;20037;-82
2021/11/09 11:39:06;;;;;;;10.43;5.13;;;12.90;94.30;;;;;;5029367;28;20064;-82
2021/11/09 11:41:34;;;;;;;17.60;5.95;;;13.00;94.60;;;;;;5033144;28;20198;-82
2021/11/09 11:44:02;;;;;;;10.63;4.78;;;13.10;94.20;;;;;;5028115;28;20045;-82
2021/11/09 11:46:34;;;;;;;9.80;5.15;;;13.20;93.90;;;;;;5052490;28;20029;-81
2021/11/09 11:49:03;;;;;;;8.95;5.60;;;13.20;93.80;;;;;;5030181;28;20045;-81
2021/11/09 11:51:30;;;;;;;7.60;4.78;;;13.30;93.90;;;;;;5038003;28;20186;-81
2021/11/09 11:53:56;;;;;;;10.82;5.10;;;13.40;93.70;;;;;;5035986;28;20037;-82
2021/11/09 11:56:51;;;;;;;12.00;5.63;;;13.40;93.50;;;;;;5040218;28;20035;-81
2021/11/09 11:59:23;;;;;;;10.20;5.55;;;13.40;93.20;;;;;;5028825;28;20615;-82
2021/11/09 12:01:55;;;;;;;5.73;4.90;;;13.30;93.20;;;;;;5040886;28;21384;-81
2021/11/09 12:04:42;;;;;;;7.10;4.82;;;13.30;93.30;;;;;;5038679;28;20462;-83
2021/11/09 12:07:11;;;;;;;10.98;5.18;;;13.30;93.80;;;;;;5038958;28;20119;-81
2021/11/09 12:09:41;;;;;;;6.72;4.50;;;13.20;93.90;;;;;;5038636;28;20113;-82
2021/11/09 12:12:19;;;;;;;5.80;4.45;;;13.10;93.70;;;;;;5039584;28;20091;-81
2021/11/09 12:14:45;;;;;;;8.68;3.92;;;13.20;93.90;;;;;;5034709;28;20048;-83
2021/11/09 12:17:13;;;;;;;10.68;4.28;;;13.10;93.60;;;;;;5040982;28;20029;-83
2021/11/09 12:19:49;;;;;;;7.88;4.55;;;13.20;93.60;;;;;;5036805;28;20025;-82
2021/11/09 12:22:37;;;;;;;8.50;4.63;;;13.30;93.60;;;;;;5031705;28;20044;-83
2021/11/09 12:25:04;;;;;;;8.80;4.32;;;13.40;93.20;;;;;;5036661;28;20045;-82
2021/11/09 12:27:48;;;;;;;7.45;3.95;;;13.40;93.00;;;;;;5037244;28;20029;-83
2021/11/09 12:30:34;;;;;;;6.18;3.60;;;13.50;93.10;;;;;;5035186;28;20029;-82
2021/11/09 12:33:19;;;;;;;5.32;3.50;;;13.50;92.80;;;;;;5030589;28;20084;-82
2021/11/09 12:35:45;;;;;;;6.13;3.42;;;13.60;92.40;;;;;;5029239;28;20486;-82
2021/11/09 12:38:29;;;;;;;6.88;3.47;;;13.70;92.60;;;;;;5036069;28;20079;-82
2021/11/09 12:40:57;;;;;;;8.20;3.38;;;13.80;92.10;;;;;;5029727;28;20029;-82
2021/11/09 12:43:29;;;;;;;15.43;4.25;;;13.90;91.80;;;;;;5031846;28;20510;-81
2021/11/09 12:46:39;;;;;;;8.25;3.42;;;14.00;92.10;;;;;;5039819;28;20390;-81
2021/11/09 12:49:08;;;;;;;5.03;2.95;;;14.10;91.60;;;;;;5032747;28;20044;-81
2021/11/09 12:51:46;;;;;;;7.22;2.83;;;14.30;91.20;;;;;;5027331;28;20651;-81
2021/11/09 12:54:24;;;;;;;4.43;2.47;;;14.30;91.00;;;;;;5046242;28;20030;-82
2021/11/09 12:56:58;;;;;;;5.43;3.00;;;14.40;90.50;;;;;;5038159;28;20029;-81
2021/11/09 13:02:08;;;;;;;4.53;2.00;;;14.40;90.10;;;;;;5053637;28;20039;-80
2021/11/09 13:07:32;;;;;;;5.32;2.20;;;14.40;89.30;;;;;;5048349;28;20156;-82
2021/11/09 13:10:11;;;;;;;4.50;3.08;;;14.40;90.40;;;;;;5037124;28;20026;-82
2021/11/09 13:12:38;;;;;;;5.57;3.50;;;14.30;90.20;;;;;;5043409;28;20028;-82
2021/11/09 13:15:13;;;;;;;4.80;2.97;;;14.30;89.70;;;;;;5029101;28;20049;-82
2021/11/09 13:17:46;;;;;;;6.85;2.72;;;14.30;90.00;;;;;;5030079;28;20025;-82
2021/11/09 13:20:17;;;;;;;6.80;2.53;;;14.30;89.80;;;;;;5039181;28;20033;-82
2021/11/09 13:23:06;;;;;;;7.32;2.70;;;14.40;90.00;;;;;;5052102;28;20048;-82
2021/11/09 13:25:50;;;;;;;4.15;2.05;;;14.30;89.50;;;;;;5026485;28;20108;-82
2021/11/09 13:28:33;;;;;;;2.83;2.03;;;14.20;88.60;;;;;;5026711;28;20043;-82
2021/11/09 13:31:02;;;;;;;3.90;1.42;;;14.20;88.70;;;;;;5041350;28;20456;-82
2021/11/09 13:33:30;;;;;;;3.33;1.55;;;14.20;88.00;;;;;;5028509;28;20021;-82
2021/11/09 13:35:57;;;;;;;3.45;1.88;;;14.10;87.80;;;;;;5039115;28;20029;-82
2021/11/09 13:38:31;;;;;;;4.25;1.70;;;14.10;88.40;;;;;;5030837;28;20032;-81
2021/11/09 13:41:06;;;;;;;3.85;1.75;;;14.10;88.30;;;;;;5023154;28;20037;-82
2021/11/09 13:43:39;;;;;;;4.03;2.00;;;14.00;89.00;;;;;;5030291;28;20029;-82
2021/11/09 13:46:25;;;;;;;5.72;2.05;;;14.00;89.40;;;;;;5038122;28;20483;-82
2021/11/09 13:48:57;;;;;;;4.20;2.40;;;13.90;90.00;;;;;;5037793;28;20098;-83
2021/11/09 13:51:26;;;;;;;4.27;2.10;;;13.80;89.90;;;;;;5036980;28;20111;-81
2021/11/09 13:54:01;;;;;;;5.93;2.45;;;13.80;90.10;;;;;;5034974;28;20296;-81
2021/11/09 13:56:28;;;;;;;4.80;1.90;;;13.70;90.30;;;;;;5041926;28;20070;-81
2021/11/09 13:59:04;;;;;;;5.25;2.40;;;13.70;90.50;;;;;;5021652;28;20378;-81
2021/11/09 14:01:55;;;;;;;3.38;2.17;;;13.60;90.40;;;;;;5026221;28;20053;-80
2021/11/09 14:04:58;;;;;;;5.53;2.35;;;13.50;90.70;;;;;;5028376;28;20061;-81
2021/11/09 14:10:12;;;;;;;3.83;2.53;;;13.40;90.90;;;;;;5029051;28;20059;-80
2021/11/09 14:15:18;;;;;;;3.22;1.95;;;13.40;91.10;;;;;;5031858;28;20039;-83
2021/11/09 14:17:44;;;;;;;5.03;2.63;;;13.30;91.20;;;;;;5031092;28;20041;-83
2021/11/09 14:20:16;;;;;;;6.13;2.63;;;13.30;91.50;;;;;;5026303;28;20038;-82
2021/11/09 14:22:46;;;;;;;9.70;2.85;;;13.30;91.40;;;;;;5019757;28;20030;-83
2021/11/09 14:25:12;;;;;;;8.93;2.30;;;13.20;91.70;;;;;;5026717;28;20042;-82
2021/11/09 14:27:44;;;;;;;6.93;3.08;;;13.20;91.70;;;;;;5037498;28;20083;-81
2021/11/09 14:30:11;;;;;;;4.13;3.15;;;13.10;91.80;;;;;;5025398;28;20033;-82
2021/11/09 14:32:37;;;;;;;5.00;2.60;;;13.10;91.90;;;;;;5025463;28;20536;-82
2021/11/09 14:35:20;;;;;;;3.83;2.58;;;13.00;92.10;;;;;;5014485;28;20411;-82
2021/11/09 14:37:52;;;;;;;;;;;12.90;92.10;;;;;;5019468;28;20038;-81
2021/11/09 14:40:17;;;;;;;5.90;2.20;;;12.90;92.20;;;;;;5035002;28;19995;-81
2021/11/09 14:45:30;;;;;;;4.13;2.65;;;12.70;92.40;;;;;;5013043;28;20113;-82
2021/11/09 14:48:04;;;;;;;3.53;2.47;;;12.60;92.40;;;;;;5015003;28;20037;-82
2021/11/09 14:53:22;;;;;;;8.48;3.80;;;12.50;92.40;;;;;;5028872;28;20056;-82
2021/11/09 14:55:58;;;;;;;6.22;3.03;;;12.40;92.30;;;;;;5042683;28;20018;-82
2021/11/09 14:58:35;;;;;;;3.90;2.70;;;12.40;92.40;;;;;;5027531;28;20546;-81
2021/11/09 15:01:33;;;;;;;4.95;2.85;;;12.40;92.40;;;;;;5021308;28;20029;-81
2021/11/09 15:04:05;;;;;;;6.93;2.38;;;12.30;92.60;;;;;;5012500;28;20791;-80
2021/11/09 15:06:43;;;;;;;3.70;2.35;;;12.20;92.80;;;;;;5028962;28;20107;-80